sensor_id;sensor_type;location;lat;lon;timestamp;P1;durP1;ratioP1;P2;durP2;ratioP2
80930;SDS011;70388;42.698;23.324;2024-01-15T00:02:11;238.50;;;109.97;;
80930;SDS011;70388;42.698;23.324;2024-01-15T00:04:37;213.93;;;101.45;;
80930;SDS011;70388;42.698;23.324;2024-01-15T00:07:04;226.68;;;106.55;;
80930;SDS011;70388;42.698;23.324;2024-01-15T00:09:30;224.95;;;102.82;;
80930;SDS011;70388;42.698;23.324;2024-01-15T00:11:56;224.00;;;104.03;;
80930;SDS011;70388;42.698;23.324;2024-01-15T00:14:22;228.65;;;101.85;;
80930;SDS011;70388;42.698;23.324;2024-01-15T00:16:48;225.95;;;106.13;;
80930;SDS011;70388;42.698;23.324;2024-01-15T00:19:16;230.48;;;109.88;;
80930;SDS011;70388;42.698;23.324;2024-01-15T00:21:42;232.88;;;109.28;;
80930;SDS011;70388;42.698;23.324;2024-01-15T00:24:08;227.25;;;102.07;;
80930;SDS011;70388;42.698;23.324;2024-01-15T00:26:34;217.40;;;101.93;;
80930;SDS011;70388;42.698;23.324;2024-01-15T00:29:00;216.10;;;103.93;;
80930;SDS011;70388;42.698;23.324;2024-01-15T00:31:26;212.18;;;99.35;;
80930;SDS011;70388;42.698;23.324;2024-01-15T00:33:52;217.38;;;104.70;;
80930;SDS011;70388;42.698;23.324;2024-01-15T00:36:17;214.93;;;97.88;;
80930;SDS011;70388;42.698;23.324;2024-01-15T00:38:43;221.27;;;101.90;;
80930;SDS011;70388;42.698;23.324;2024-01-15T00:41:09;214.73;;;99.32;;
80930;SDS011;70388;42.698;23.324;2024-01-15T00:43:35;211.70;;;99.57;;
80930;SDS011;70388;42.698;23.324;2024-01-15T00:46:02;203.10;;;97.45;;
80930;SDS011;70388;42.698;23.324;2024-01-15T00:48:28;204.43;;;94.90;;
80930;SDS011;70388;42.698;23.324;2024-01-15T00:50:54;222.75;;;101.70;;
80930;SDS011;70388;42.698;23.324;2024-01-15T00:53:19;202.23;;;96.95;;
80930;SDS011;70388;42.698;23.324;2024-01-15T00:55:47;198.85;;;96.13;;
80930;SDS011;70388;42.698;23.324;2024-01-15T00:58:13;204.98;;;95.30;;
80930;SDS011;70388;42.698;23.324;2024-01-15T01:00:39;200.38;;;94.75;;
80930;SDS011;70388;42.698;23.324;2024-01-15T01:03:05;222.95;;;100.05;;
80930;SDS011;70388;42.698;23.324;2024-01-15T01:05:31;204.00;;;101.20;;
80930;SDS011;70388;42.698;23.324;2024-01-15T01:07:58;200.70;;;99.30;;
80930;SDS011;70388;42.698;23.324;2024-01-15T01:10:24;200.40;;;97.95;;
80930;SDS011;70388;42.698;23.324;2024-01-15T01:12:49;205.35;;;98.05;;
80930;SDS011;70388;42.698;23.324;2024-01-15T01:15:15;212.40;;;97.75;;
80930;SDS011;70388;42.698;23.324;2024-01-15T01:17:41;214.20;;;94.95;;
80930;SDS011;70388;42.698;23.324;2024-01-15T01:20:07;209.43;;;100.63;;
80930;SDS011;70388;42.698;23.324;2024-01-15T01:22:34;208.27;;;96.20;;
80930;SDS011;70388;42.698;23.324;2024-01-15T01:25:00;198.35;;;96.95;;
80930;SDS011;70388;42.698;23.324;2024-01-15T01:27:26;208.90;;;96.93;;
80930;SDS011;70388;42.698;23.324;2024-01-15T01:29:52;207.48;;;94.20;;
80930;SDS011;70388;42.698;23.324;2024-01-15T01:32:18;198.20;;;93.55;;
80930;SDS011;70388;42.698;23.324;2024-01-15T01:34:43;194.75;;;84.65;;
80930;SDS011;70388;42.698;23.324;2024-01-15T01:37:12;169.40;;;79.55;;
80930;SDS011;70388;42.698;23.324;2024-01-15T01:39:39;176.48;;;86.30;;
80930;SDS011;70388;42.698;23.324;2024-01-15T01:42:08;176.55;;;82.63;;
80930;SDS011;70388;42.698;23.324;2024-01-15T01:44:34;173.20;;;85.72;;
80930;SDS011;70388;42.698;23.324;2024-01-15T01:47:00;177.43;;;82.55;;
80930;SDS011;70388;42.698;23.324;2024-01-15T01:49:27;174.90;;;79.90;;
80930;SDS011;70388;42.698;23.324;2024-01-15T01:51:55;173.95;;;77.30;;
80930;SDS011;70388;42.698;23.324;2024-01-15T01:54:24;176.27;;;78.78;;
80930;SDS011;70388;42.698;23.324;2024-01-15T01:56:51;161.30;;;74.30;;
80930;SDS011;70388;42.698;23.324;2024-01-15T01:59:17;159.95;;;75.40;;
80930;SDS011;70388;42.698;23.324;2024-01-15T02:01:43;176.73;;;76.95;;
80930;SDS011;70388;42.698;23.324;2024-01-15T02:04:10;171.57;;;78.20;;
80930;SDS011;70388;42.698;23.324;2024-01-15T02:06:39;138.23;;;66.93;;
80930;SDS011;70388;42.698;23.324;2024-01-15T02:09:04;166.88;;;75.88;;
80930;SDS011;70388;42.698;23.324;2024-01-15T02:11:30;168.90;;;80.63;;
80930;SDS011;70388;42.698;23.324;2024-01-15T02:13:56;162.50;;;79.93;;
80930;SDS011;70388;42.698;23.324;2024-01-15T02:16:22;177.10;;;84.38;;
80930;SDS011;70388;42.698;23.324;2024-01-15T02:18:48;192.93;;;90.93;;
80930;SDS011;70388;42.698;23.324;2024-01-15T02:21:14;178.50;;;77.45;;
80930;SDS011;70388;42.698;23.324;2024-01-15T02:23:40;160.18;;;74.38;;
80930;SDS011;70388;42.698;23.324;2024-01-15T02:26:06;161.60;;;76.45;;
80930;SDS011;70388;42.698;23.324;2024-01-15T02:28:33;80.15;;;44.03;;
80930;SDS011;70388;42.698;23.324;2024-01-15T02:30:59;116.15;;;57.90;;
80930;SDS011;70388;42.698;23.324;2024-01-15T02:33:25;90.18;;;45.25;;
80930;SDS011;70388;42.698;23.324;2024-01-15T02:35:51;120.43;;;54.13;;
80930;SDS011;70388;42.698;23.324;2024-01-15T02:38:17;110.28;;;48.83;;
80930;SDS011;70388;42.698;23.324;2024-01-15T02:40:43;93.60;;;44.80;;
80930;SDS011;70388;42.698;23.324;2024-01-15T02:43:09;106.30;;;52.83;;
80930;SDS011;70388;42.698;23.324;2024-01-15T02:45:35;90.85;;;46.90;;
80930;SDS011;70388;42.698;23.324;2024-01-15T02:48:01;131.30;;;59.45;;
80930;SDS011;70388;42.698;23.324;2024-01-15T02:50:27;129.93;;;61.03;;
80930;SDS011;70388;42.698;23.324;2024-01-15T02:52:53;122.75;;;60.33;;
80930;SDS011;70388;42.698;23.324;2024-01-15T02:55:37;138.68;;;61.50;;
80930;SDS011;70388;42.698;23.324;2024-01-15T02:58:03;137.52;;;59.13;;
80930;SDS011;70388;42.698;23.324;2024-01-15T03:00:29;148.20;;;64.13;;
80930;SDS011;70388;42.698;23.324;2024-01-15T03:02:55;132.93;;;62.67;;
80930;SDS011;70388;42.698;23.324;2024-01-15T03:05:21;149.77;;;69.05;;
80930;SDS011;70388;42.698;23.324;2024-01-15T03:07:47;153.10;;;67.75;;
80930;SDS011;70388;42.698;23.324;2024-01-15T03:10:13;133.15;;;59.95;;
80930;SDS011;70388;42.698;23.324;2024-01-15T03:12:38;162.93;;;67.60;;
80930;SDS011;70388;42.698;23.324;2024-01-15T03:15:04;149.13;;;65.90;;
80930;SDS011;70388;42.698;23.324;2024-01-15T03:17:30;159.27;;;68.85;;
80930;SDS011;70388;42.698;23.324;2024-01-15T03:19:56;156.60;;;65.45;;
80930;SDS011;70388;42.698;23.324;2024-01-15T03:22:22;150.98;;;68.32;;
80930;SDS011;70388;42.698;23.324;2024-01-15T03:24:48;129.00;;;56.97;;
80930;SDS011;70388;42.698;23.324;2024-01-15T03:27:13;135.05;;;57.05;;
80930;SDS011;70388;42.698;23.324;2024-01-15T03:29:40;131.05;;;55.83;;
80930;SDS011;70388;42.698;23.324;2024-01-15T03:32:06;133.18;;;57.72;;
80930;SDS011;70388;42.698;23.324;2024-01-15T03:34:32;125.63;;;56.50;;
80930;SDS011;70388;42.698;23.324;2024-01-15T03:36:57;109.63;;;51.75;;
80930;SDS011;70388;42.698;23.324;2024-01-15T03:39:24;95.43;;;47.65;;
80930;SDS011;70388;42.698;23.324;2024-01-15T03:41:50;117.72;;;51.88;;
80930;SDS011;70388;42.698;23.324;2024-01-15T03:44:16;115.88;;;49.80;;
80930;SDS011;70388;42.698;23.324;2024-01-15T03:46:41;116.35;;;53.67;;
80930;SDS011;70388;42.698;23.324;2024-01-15T03:49:07;112.55;;;49.25;;
80930;SDS011;70388;42.698;23.324;2024-01-15T03:51:33;103.22;;;47.42;;
80930;SDS011;70388;42.698;23.324;2024-01-15T03:53:59;91.55;;;42.63;;
80930;SDS011;70388;42.698;23.324;2024-01-15T03:56:24;93.53;;;43.72;;
80930;SDS011;70388;42.698;23.324;2024-01-15T03:58:50;93.80;;;41.33;;
80930;SDS011;70388;42.698;23.324;2024-01-15T04:01:16;81.75;;;40.80;;
80930;SDS011;70388;42.698;23.324;2024-01-15T04:03:41;84.55;;;43.08;;
80930;SDS011;70388;42.698;23.324;2024-01-15T04:06:07;74.47;;;36.92;;
80930;SDS011;70388;42.698;23.324;2024-01-15T04:08:33;77.70;;;36.90;;
80930;SDS011;70388;42.698;23.324;2024-01-15T04:10:59;74.20;;;35.50;;
80930;SDS011;70388;42.698;23.324;2024-01-15T04:13:24;75.25;;;36.10;;
80930;SDS011;70388;42.698;23.324;2024-01-15T04:15:50;65.35;;;37.38;;
80930;SDS011;70388;42.698;23.324;2024-01-15T04:18:16;79.13;;;37.80;;
80930;SDS011;70388;42.698;23.324;2024-01-15T04:20:45;76.57;;;35.30;;
80930;SDS011;70388;42.698;23.324;2024-01-15T04:23:10;65.25;;;33.80;;
80930;SDS011;70388;42.698;23.324;2024-01-15T04:25:36;68.35;;;31.60;;
80930;SDS011;70388;42.698;23.324;2024-01-15T04:28:02;64.63;;;32.70;;
80930;SDS011;70388;42.698;23.324;2024-01-15T04:30:28;70.40;;;36.13;;
80930;SDS011;70388;42.698;23.324;2024-01-15T04:32:53;63.42;;;31.38;;
80930;SDS011;70388;42.698;23.324;2024-01-15T04:35:19;71.95;;;34.67;;
80930;SDS011;70388;42.698;23.324;2024-01-15T04:37:45;71.88;;;33.83;;
80930;SDS011;70388;42.698;23.324;2024-01-15T04:40:11;67.82;;;34.22;;
80930;SDS011;70388;42.698;23.324;2024-01-15T04:42:36;72.03;;;34.08;;
80930;SDS011;70388;42.698;23.324;2024-01-15T04:45:02;74.28;;;35.45;;
80930;SDS011;70388;42.698;23.324;2024-01-15T04:47:28;67.30;;;35.78;;
80930;SDS011;70388;42.698;23.324;2024-01-15T04:49:54;70.53;;;37.00;;
80930;SDS011;70388;42.698;23.324;2024-01-15T04:52:20;71.72;;;37.47;;
80930;SDS011;70388;42.698;23.324;2024-01-15T04:54:46;69.43;;;33.65;;
80930;SDS011;70388;42.698;23.324;2024-01-15T04:57:11;79.85;;;35.92;;
80930;SDS011;70388;42.698;23.324;2024-01-15T04:59:37;79.80;;;38.90;;
80930;SDS011;70388;42.698;23.324;2024-01-15T05:02:03;85.65;;;40.75;;
80930;SDS011;70388;42.698;23.324;2024-01-15T05:04:28;83.70;;;39.22;;
80930;SDS011;70388;42.698;23.324;2024-01-15T05:06:55;73.85;;;33.83;;
80930;SDS011;70388;42.698;23.324;2024-01-15T05:09:20;67.18;;;35.03;;
80930;SDS011;70388;42.698;23.324;2024-01-15T05:11:46;71.07;;;34.55;;
80930;SDS011;70388;42.698;23.324;2024-01-15T05:14:12;79.47;;;37.83;;
80930;SDS011;70388;42.698;23.324;2024-01-15T05:16:38;75.18;;;34.33;;
80930;SDS011;70388;42.698;23.324;2024-01-15T05:19:05;77.78;;;35.97;;
80930;SDS011;70388;42.698;23.324;2024-01-15T05:21:32;75.32;;;35.63;;
80930;SDS011;70388;42.698;23.324;2024-01-15T05:23:58;76.43;;;36.80;;
80930;SDS011;70388;42.698;23.324;2024-01-15T05:26:24;73.43;;;36.20;;
80930;SDS011;70388;42.698;23.324;2024-01-15T05:28:49;60.63;;;33.30;;
80930;SDS011;70388;42.698;23.324;2024-01-15T05:31:15;86.93;;;39.25;;
80930;SDS011;70388;42.698;23.324;2024-01-15T05:33:41;79.55;;;40.53;;
80930;SDS011;70388;42.698;23.324;2024-01-15T05:36:06;87.63;;;41.67;;
80930;SDS011;70388;42.698;23.324;2024-01-15T05:38:32;77.88;;;38.97;;
80930;SDS011;70388;42.698;23.324;2024-01-15T05:40:58;91.35;;;47.17;;
80930;SDS011;70388;42.698;23.324;2024-01-15T05:43:24;96.78;;;46.25;;
80930;SDS011;70388;42.698;23.324;2024-01-15T05:45:49;99.35;;;46.17;;
80930;SDS011;70388;42.698;23.324;2024-01-15T05:48:15;91.93;;;43.95;;
80930;SDS011;70388;42.698;23.324;2024-01-15T05:50:41;88.40;;;43.72;;
80930;SDS011;70388;42.698;23.324;2024-01-15T05:53:07;80.95;;;41.45;;
80930;SDS011;70388;42.698;23.324;2024-01-15T05:55:33;92.78;;;43.53;;
80930;SDS011;70388;42.698;23.324;2024-01-15T05:58:00;87.43;;;41.33;;
80930;SDS011;70388;42.698;23.324;2024-01-15T06:00:25;91.65;;;44.72;;
80930;SDS011;70388;42.698;23.324;2024-01-15T06:02:51;66.57;;;34.03;;
80930;SDS011;70388;42.698;23.324;2024-01-15T06:05:17;85.43;;;42.80;;
80930;SDS011;70388;42.698;23.324;2024-01-15T06:07:43;84.97;;;39.17;;
80930;SDS011;70388;42.698;23.324;2024-01-15T06:10:09;82.82;;;41.72;;
80930;SDS011;70388;42.698;23.324;2024-01-15T06:12:35;95.18;;;43.47;;
80930;SDS011;70388;42.698;23.324;2024-01-15T06:15:00;97.15;;;47.85;;
80930;SDS011;70388;42.698;23.324;2024-01-15T06:17:27;103.38;;;45.78;;
80930;SDS011;70388;42.698;23.324;2024-01-15T06:19:53;101.35;;;47.72;;
80930;SDS011;70388;42.698;23.324;2024-01-15T06:22:18;119.45;;;56.10;;
80930;SDS011;70388;42.698;23.324;2024-01-15T06:24:44;121.80;;;53.88;;
80930;SDS011;70388;42.698;23.324;2024-01-15T06:27:10;99.22;;;46.55;;
80930;SDS011;70388;42.698;23.324;2024-01-15T06:29:37;108.47;;;55.25;;
80930;SDS011;70388;42.698;23.324;2024-01-15T06:32:03;125.32;;;55.47;;
80930;SDS011;70388;42.698;23.324;2024-01-15T06:34:29;94.38;;;49.35;;
80930;SDS011;70388;42.698;23.324;2024-01-15T06:36:55;127.22;;;56.83;;
80930;SDS011;70388;42.698;23.324;2024-01-15T06:39:21;92.40;;;46.40;;
80930;SDS011;70388;42.698;23.324;2024-01-15T06:41:46;119.95;;;56.97;;
80930;SDS011;70388;42.698;23.324;2024-01-15T06:44:12;125.80;;;60.58;;
80930;SDS011;70388;42.698;23.324;2024-01-15T06:46:42;137.15;;;64.95;;
80930;SDS011;70388;42.698;23.324;2024-01-15T06:49:08;124.47;;;63.85;;
80930;SDS011;70388;42.698;23.324;2024-01-15T06:51:35;126.63;;;64.03;;
80930;SDS011;70388;42.698;23.324;2024-01-15T06:54:00;134.50;;;65.63;;
80930;SDS011;70388;42.698;23.324;2024-01-15T06:56:27;136.70;;;63.05;;
80930;SDS011;70388;42.698;23.324;2024-01-15T06:58:52;136.77;;;62.83;;
80930;SDS011;70388;42.698;23.324;2024-01-15T07:01:19;143.02;;;65.10;;
80930;SDS011;70388;42.698;23.324;2024-01-15T07:03:45;141.95;;;67.47;;
80930;SDS011;70388;42.698;23.324;2024-01-15T07:06:11;133.18;;;64.43;;
80930;SDS011;70388;42.698;23.324;2024-01-15T07:08:40;141.82;;;67.65;;
80930;SDS011;70388;42.698;23.324;2024-01-15T07:11:07;129.00;;;58.80;;
80930;SDS011;70388;42.698;23.324;2024-01-15T07:13:33;121.32;;;60.97;;
80930;SDS011;70388;42.698;23.324;2024-01-15T07:15:59;141.32;;;61.92;;
80930;SDS011;70388;42.698;23.324;2024-01-15T07:18:25;144.10;;;67.28;;
80930;SDS011;70388;42.698;23.324;2024-01-15T07:20:51;135.38;;;64.82;;
80930;SDS011;70388;42.698;23.324;2024-01-15T07:23:17;147.63;;;66.70;;
80930;SDS011;70388;42.698;23.324;2024-01-15T07:25:43;141.38;;;66.88;;
80930;SDS011;70388;42.698;23.324;2024-01-15T07:28:09;133.75;;;63.67;;
80930;SDS011;70388;42.698;23.324;2024-01-15T07:30:35;141.57;;;66.63;;
80930;SDS011;70388;42.698;23.324;2024-01-15T07:33:03;133.70;;;62.90;;
80930;SDS011;70388;42.698;23.324;2024-01-15T07:35:29;133.07;;;63.25;;
80930;SDS011;70388;42.698;23.324;2024-01-15T07:37:55;145.10;;;70.90;;
80930;SDS011;70388;42.698;23.324;2024-01-15T07:40:21;123.70;;;64.40;;
80930;SDS011;70388;42.698;23.324;2024-01-15T07:42:47;145.70;;;67.30;;
80930;SDS011;70388;42.698;23.324;2024-01-15T07:45:13;133.82;;;69.18;;
80930;SDS011;70388;42.698;23.324;2024-01-15T07:47:39;139.30;;;66.90;;
80930;SDS011;70388;42.698;23.324;2024-01-15T07:50:04;137.32;;;68.40;;
80930;SDS011;70388;42.698;23.324;2024-01-15T07:52:30;138.60;;;70.80;;
80930;SDS011;70388;42.698;23.324;2024-01-15T07:54:56;144.52;;;71.05;;
80930;SDS011;70388;42.698;23.324;2024-01-15T07:57:24;140.90;;;73.43;;
80930;SDS011;70388;42.698;23.324;2024-01-15T07:59:51;139.88;;;65.85;;
80930;SDS011;70388;42.698;23.324;2024-01-15T08:02:16;123.88;;;58.33;;
80930;SDS011;70388;42.698;23.324;2024-01-15T08:04:42;140.60;;;67.97;;
80930;SDS011;70388;42.698;23.324;2024-01-15T08:07:08;125.47;;;66.60;;
80930;SDS011;70388;42.698;23.324;2024-01-15T08:09:34;143.15;;;67.97;;
80930;SDS011;70388;42.698;23.324;2024-01-15T08:12:00;155.18;;;78.45;;
80930;SDS011;70388;42.698;23.324;2024-01-15T08:14:26;144.15;;;74.53;;
80930;SDS011;70388;42.698;23.324;2024-01-15T08:16:51;147.98;;;72.32;;
80930;SDS011;70388;42.698;23.324;2024-01-15T08:19:17;144.93;;;73.53;;
80930;SDS011;70388;42.698;23.324;2024-01-15T08:21:45;161.25;;;78.38;;
80930;SDS011;70388;42.698;23.324;2024-01-15T08:24:10;162.25;;;80.13;;
80930;SDS011;70388;42.698;23.324;2024-01-15T08:26:36;172.18;;;85.93;;
80930;SDS011;70388;42.698;23.324;2024-01-15T08:29:02;169.50;;;85.78;;
80930;SDS011;70388;42.698;23.324;2024-01-15T08:31:28;170.20;;;88.45;;
80930;SDS011;70388;42.698;23.324;2024-01-15T08:33:54;172.20;;;85.78;;
80930;SDS011;70388;42.698;23.324;2024-01-15T08:36:20;198.85;;;92.45;;
80930;SDS011;70388;42.698;23.324;2024-01-15T08:38:46;176.30;;;91.30;;
80930;SDS011;70388;42.698;23.324;2024-01-15T08:41:12;180.65;;;91.68;;
80930;SDS011;70388;42.698;23.324;2024-01-15T08:43:38;162.65;;;84.80;;
80930;SDS011;70388;42.698;23.324;2024-01-15T08:46:04;164.43;;;83.97;;
80930;SDS011;70388;42.698;23.324;2024-01-15T08:48:30;162.07;;;82.60;;
80930;SDS011;70388;42.698;23.324;2024-01-15T08:50:56;171.70;;;89.03;;
80930;SDS011;70388;42.698;23.324;2024-01-15T08:53:22;163.00;;;85.10;;
80930;SDS011;70388;42.698;23.324;2024-01-15T08:55:48;159.18;;;84.20;;
80930;SDS011;70388;42.698;23.324;2024-01-15T08:58:14;148.98;;;82.78;;
80930;SDS011;70388;42.698;23.324;2024-01-15T09:00:40;160.85;;;81.13;;
80930;SDS011;70388;42.698;23.324;2024-01-15T09:03:06;169.98;;;86.40;;
80930;SDS011;70388;42.698;23.324;2024-01-15T09:05:33;174.63;;;86.40;;
80930;SDS011;70388;42.698;23.324;2024-01-15T09:07:59;171.13;;;82.28;;
80930;SDS011;70388;42.698;23.324;2024-01-15T09:10:25;173.48;;;85.85;;
80930;SDS011;70388;42.698;23.324;2024-01-15T09:12:50;151.52;;;81.45;;
80930;SDS011;70388;42.698;23.324;2024-01-15T09:15:16;152.18;;;83.60;;
80930;SDS011;70388;42.698;23.324;2024-01-15T09:17:42;159.32;;;81.38;;
80930;SDS011;70388;42.698;23.324;2024-01-15T09:20:09;162.70;;;82.00;;
80930;SDS011;70388;42.698;23.324;2024-01-15T09:22:35;145.45;;;73.78;;
80930;SDS011;70388;42.698;23.324;2024-01-15T09:25:08;182.57;;;91.13;;
80930;SDS011;70388;42.698;23.324;2024-01-15T09:27:35;175.10;;;91.30;;
80930;SDS011;70388;42.698;23.324;2024-01-15T09:30:01;167.65;;;86.63;;
80930;SDS011;70388;42.698;23.324;2024-01-15T09:32:28;153.18;;;82.78;;
80930;SDS011;70388;42.698;23.324;2024-01-15T09:34:54;142.07;;;74.65;;
80930;SDS011;70388;42.698;23.324;2024-01-15T09:37:20;149.93;;;78.10;;
80930;SDS011;70388;42.698;23.324;2024-01-15T09:39:46;138.88;;;76.90;;
80930;SDS011;70388;42.698;23.324;2024-01-15T09:42:13;145.05;;;76.47;;
80930;SDS011;70388;42.698;23.324;2024-01-15T09:44:40;143.63;;;76.60;;
80930;SDS011;70388;42.698;23.324;2024-01-15T09:47:06;137.93;;;76.47;;
80930;SDS011;70388;42.698;23.324;2024-01-15T09:49:32;174.07;;;83.53;;
80930;SDS011;70388;42.698;23.324;2024-01-15T09:51:58;174.32;;;81.22;;
80930;SDS011;70388;42.698;23.324;2024-01-15T09:54:25;148.35;;;77.22;;
80930;SDS011;70388;42.698;23.324;2024-01-15T09:56:52;157.07;;;75.80;;
80930;SDS011;70388;42.698;23.324;2024-01-15T09:59:18;126.18;;;64.03;;
80930;SDS011;70388;42.698;23.324;2024-01-15T10:01:45;132.85;;;66.30;;
80930;SDS011;70388;42.698;23.324;2024-01-15T10:04:13;253.15;;;118.65;;
80930;SDS011;70388;42.698;23.324;2024-01-15T10:06:41;137.50;;;70.90;;
80930;SDS011;70388;42.698;23.324;2024-01-15T10:09:13;135.13;;;66.38;;
80930;SDS011;70388;42.698;23.324;2024-01-15T10:11:42;120.78;;;63.72;;
80930;SDS011;70388;42.698;23.324;2024-01-15T10:14:09;104.40;;;56.58;;
80930;SDS011;70388;42.698;23.324;2024-01-15T10:16:42;125.32;;;56.58;;
80930;SDS011;70388;42.698;23.324;2024-01-15T10:19:08;108.22;;;53.40;;
80930;SDS011;70388;42.698;23.324;2024-01-15T10:21:34;100.15;;;50.85;;
80930;SDS011;70388;42.698;23.324;2024-01-15T10:24:01;101.43;;;53.88;;
80930;SDS011;70388;42.698;23.324;2024-01-15T10:26:27;101.20;;;58.28;;
80930;SDS011;70388;42.698;23.324;2024-01-15T10:28:53;102.65;;;52.20;;
80930;SDS011;70388;42.698;23.324;2024-01-15T10:31:19;100.18;;;51.80;;
80930;SDS011;70388;42.698;23.324;2024-01-15T10:33:47;108.35;;;53.83;;
80930;SDS011;70388;42.698;23.324;2024-01-15T10:36:16;104.22;;;55.88;;
80930;SDS011;70388;42.698;23.324;2024-01-15T10:38:43;95.05;;;50.63;;
80930;SDS011;70388;42.698;23.324;2024-01-15T10:41:09;95.78;;;50.42;;
80930;SDS011;70388;42.698;23.324;2024-01-15T10:43:35;106.93;;;57.08;;
80930;SDS011;70388;42.698;23.324;2024-01-15T10:46:01;105.65;;;55.55;;
80930;SDS011;70388;42.698;23.324;2024-01-15T10:48:27;97.25;;;54.65;;
80930;SDS011;70388;42.698;23.324;2024-01-15T10:50:56;110.72;;;52.35;;
80930;SDS011;70388;42.698;23.324;2024-01-15T10:53:24;99.88;;;50.25;;
80930;SDS011;70388;42.698;23.324;2024-01-15T10:55:51;97.85;;;49.88;;
80930;SDS011;70388;42.698;23.324;2024-01-15T10:58:17;93.20;;;45.33;;
80930;SDS011;70388;42.698;23.324;2024-01-15T11:00:45;88.03;;;45.22;;
80930;SDS011;70388;42.698;23.324;2024-01-15T11:03:11;86.05;;;46.10;;
80930;SDS011;70388;42.698;23.324;2024-01-15T11:05:37;73.55;;;39.03;;
80930;SDS011;70388;42.698;23.324;2024-01-15T11:08:07;69.03;;;37.58;;
80930;SDS011;70388;42.698;23.324;2024-01-15T11:10:37;78.50;;;39.53;;
80930;SDS011;70388;42.698;23.324;2024-01-15T11:18:30;60.05;;;32.00;;
80930;SDS011;70388;42.698;23.324;2024-01-15T11:26:28;55.22;;;27.45;;
80930;SDS011;70388;42.698;23.324;2024-01-15T11:28:54;66.03;;;32.35;;
80930;SDS011;70388;42.698;23.324;2024-01-15T11:31:28;59.40;;;32.22;;
80930;SDS011;70388;42.698;23.324;2024-01-15T11:34:03;56.38;;;31.40;;
80930;SDS011;70388;42.698;23.324;2024-01-15T11:37:16;54.92;;;29.35;;
80930;SDS011;70388;42.698;23.324;2024-01-15T11:41:58;57.60;;;31.23;;
80930;SDS011;70388;42.698;23.324;2024-01-15T11:44:28;55.33;;;30.23;;
80930;SDS011;70388;42.698;23.324;2024-01-15T11:52:07;295.17;;;153.45;;
80930;SDS011;70388;42.698;23.324;2024-01-15T11:54:39;56.22;;;29.02;;
80930;SDS011;70388;42.698;23.324;2024-01-15T11:57:13;50.90;;;29.60;;
80930;SDS011;70388;42.698;23.324;2024-01-15T11:59:46;64.93;;;34.67;;
80930;SDS011;70388;42.698;23.324;2024-01-15T12:02:13;59.40;;;33.40;;
80930;SDS011;70388;42.698;23.324;2024-01-15T12:04:39;59.95;;;31.88;;
80930;SDS011;70388;42.698;23.324;2024-01-15T12:07:05;52.15;;;30.77;;
80930;SDS011;70388;42.698;23.324;2024-01-15T12:09:31;57.13;;;32.63;;
80930;SDS011;70388;42.698;23.324;2024-01-15T12:12:03;59.00;;;29.48;;
80930;SDS011;70388;42.698;23.324;2024-01-15T12:14:37;50.85;;;28.75;;
80930;SDS011;70388;42.698;23.324;2024-01-15T12:17:03;58.28;;;28.58;;
80930;SDS011;70388;42.698;23.324;2024-01-15T12:19:29;53.35;;;28.02;;
80930;SDS011;70388;42.698;23.324;2024-01-15T12:21:55;44.78;;;27.90;;
80930;SDS011;70388;42.698;23.324;2024-01-15T12:24:20;58.55;;;30.05;;
80930;SDS011;70388;42.698;23.324;2024-01-15T12:26:46;52.97;;;28.42;;
80930;SDS011;70388;42.698;23.324;2024-01-15T12:29:12;52.15;;;29.48;;
80930;SDS011;70388;42.698;23.324;2024-01-15T12:31:38;59.75;;;33.63;;
80930;SDS011;70388;42.698;23.324;2024-01-15T12:34:03;69.38;;;35.90;;
80930;SDS011;70388;42.698;23.324;2024-01-15T12:36:32;59.08;;;35.75;;
80930;SDS011;70388;42.698;23.324;2024-01-15T12:38:59;66.45;;;34.83;;
80930;SDS011;70388;42.698;23.324;2024-01-15T12:41:25;70.25;;;37.08;;
80930;SDS011;70388;42.698;23.324;2024-01-15T12:43:51;58.25;;;33.00;;
80930;SDS011;70388;42.698;23.324;2024-01-15T12:46:17;58.78;;;33.63;;
80930;SDS011;70388;42.698;23.324;2024-01-15T12:48:44;64.47;;;31.85;;
80930;SDS011;70388;42.698;23.324;2024-01-15T12:51:10;59.22;;;31.52;;
80930;SDS011;70388;42.698;23.324;2024-01-15T12:53:35;59.90;;;32.20;;
80930;SDS011;70388;42.698;23.324;2024-01-15T12:56:01;58.58;;;32.60;;
80930;SDS011;70388;42.698;23.324;2024-01-15T12:58:28;58.72;;;29.40;;
80930;SDS011;70388;42.698;23.324;2024-01-15T13:00:53;54.17;;;31.08;;
80930;SDS011;70388;42.698;23.324;2024-01-15T13:03:19;55.03;;;29.20;;
80930;SDS011;70388;42.698;23.324;2024-01-15T13:05:45;51.83;;;28.40;;
80930;SDS011;70388;42.698;23.324;2024-01-15T13:08:11;56.08;;;29.15;;
80930;SDS011;70388;42.698;23.324;2024-01-15T13:10:39;44.13;;;27.23;;
80930;SDS011;70388;42.698;23.324;2024-01-15T13:13:07;52.25;;;28.80;;
80930;SDS011;70388;42.698;23.324;2024-01-15T13:15:33;52.47;;;30.13;;
80930;SDS011;70388;42.698;23.324;2024-01-15T13:17:58;50.13;;;26.73;;
80930;SDS011;70388;42.698;23.324;2024-01-15T13:20:24;47.17;;;27.45;;
80930;SDS011;70388;42.698;23.324;2024-01-15T13:22:50;54.65;;;29.73;;
80930;SDS011;70388;42.698;23.324;2024-01-15T13:25:15;49.80;;;26.27;;
80930;SDS011;70388;42.698;23.324;2024-01-15T13:27:41;50.90;;;26.10;;
80930;SDS011;70388;42.698;23.324;2024-01-15T13:30:07;52.40;;;25.95;;
80930;SDS011;70388;42.698;23.324;2024-01-15T13:32:33;46.33;;;25.20;;
80930;SDS011;70388;42.698;23.324;2024-01-15T13:35:00;54.05;;;27.88;;
80930;SDS011;70388;42.698;23.324;2024-01-15T13:37:26;41.45;;;25.15;;
80930;SDS011;70388;42.698;23.324;2024-01-15T13:39:52;37.75;;;23.20;;
80930;SDS011;70388;42.698;23.324;2024-01-15T13:42:18;40.65;;;23.10;;
80930;SDS011;70388;42.698;23.324;2024-01-15T13:44:46;49.80;;;22.70;;
80930;SDS011;70388;42.698;23.324;2024-01-15T13:47:12;45.38;;;23.92;;
80930;SDS011;70388;42.698;23.324;2024-01-15T13:49:38;42.05;;;23.65;;
80930;SDS011;70388;42.698;23.324;2024-01-15T13:52:04;49.72;;;25.77;;
80930;SDS011;70388;42.698;23.324;2024-01-15T13:54:30;50.20;;;24.38;;
80930;SDS011;70388;42.698;23.324;2024-01-15T13:56:56;39.45;;;22.73;;
80930;SDS011;70388;42.698;23.324;2024-01-15T13:59:22;44.03;;;23.63;;
80930;SDS011;70388;42.698;23.324;2024-01-15T14:01:48;50.33;;;25.58;;
80930;SDS011;70388;42.698;23.324;2024-01-15T14:04:13;47.55;;;24.67;;
80930;SDS011;70388;42.698;23.324;2024-01-15T14:06:39;42.90;;;23.65;;
80930;SDS011;70388;42.698;23.324;2024-01-15T14:09:06;41.17;;;24.52;;
80930;SDS011;70388;42.698;23.324;2024-01-15T14:11:35;46.08;;;24.00;;
80930;SDS011;70388;42.698;23.324;2024-01-15T14:14:02;47.17;;;24.92;;
80930;SDS011;70388;42.698;23.324;2024-01-15T14:16:28;43.17;;;24.42;;